Terminal Aerodrome Forecast
Issued by NWS

Home | Current Version | Previous Version | Text Only | Print | Product List | Glossary Off
Versions: 1 2 3 4 5 6 7 8 9 10 11 12 13 14 15 16 17 18 19 20 21 22 23 24

000
FTUS43 KABR 151739
TAFMBG
TAF
KMBG 151739Z 1518/1618 15011KT P6SM -SHRA VCTS OVC025CB
     FM152200 12007KT P6SM -SHRA OVC035
     FM160200 VRB03KT P6SM VCSH BKN030
     FM160600 35004KT P6SM BKN015
     FM161300 34010KT P6SM BKN008
     FM161600 34012KT P6SM SCT030=

USA.gov is the U.S. government's official web portal to all federal, state and local government web resources and services.